Airfield :
LOGIN :

Register | Disclaimer

   EN    FR    IT 

 










Legend :    VFR   Marginal VFR   IFR   Intensive IFR   Very Intensive IFR
Visi :
Ceiling :
>= 8 km
>= 3000ft
5 to 8 km
1000 to 3000 ft
1500m to 5 km
500 to 1000 ft
800 to 1500m
200 to 500 ft
< 800m
< 200 ft
Symbols :   Thunderstorms  Fog  Heavy snow  Heavy precipitations  Wind > 20 kt
SIGMETs :     Misc.  Thunderstorms  Icing  Turbulence  Mountain Waves  Volcanic Ashes






- Airport Elevation : 364 ft


LFAQ - Albert Bray

CURRENT METAR :
  • 171200Z AUTO 26024G34KT 230V300 9999 FEW026/// BKN035/// OVC042/// ///TCU 09/04 Q1015 TEMPO 4000 SHRA BKN020CB

EXPIRED METARs :
  • 171130Z AUTO 25021KT 9999 BKN034 OVC045 11/05 Q1015 TEMPO 25020G37KT 4000 SHRA BKN020CB
  • 171100Z AUTO 24025KT 9999 BKN032 BKN043 BKN092 10/05 Q1014 TEMPO 25020G37KT 4000 SHRA BKN020CB
  • 171030Z AUTO 23022KT 9999 BKN028 BKN034 BKN092 10/06 Q1014 TEMPO 25020G37KT 4000 SHRA BKN020CB
  • 171000Z AUTO 22019KT 9999 BKN022 BKN030 OVC110 09/07 Q1014 TEMPO 25020G37KT 4000 SHRA BKN020CB
  • 170930Z AUTO 21020KT 9999 FEW019 SCT025 BKN120 09/06 Q1013 TEMPO 25020G37KT 4000 SHRA BKN020CB

TAF TAF LFAQ
Valid from the 17 at 12:00 until the 17 at 21:00 UTC


171100Z 1712/1721 22017G27KT 9999 BKN030
TEMPO 1712/1721 25020G37KT 4000 SHRA BKN020CB



MET'MAP, your aeronautical weather chart ! - Copyright ORBIFLY December 2007 - Disclaimer

ORBIFLY MET'MAP TEAM :

Programming & Development : Alexandra Zaïnal
Concept & original design : Baudouin d'Aumeries
Assistance for programming : Marc-Olivier Méhu
Technical & hardware support : Manuel Goepfert

Contact : metmap@orbifly.com




SOURCES & CREDITS :

   NOAA